createdAt,value
2022-10-30T00:02:15.995Z,66.10
2022-10-30T00:04:35.917Z,66.30
2022-10-30T00:07:14.133Z,66.20
2022-10-30T00:12:04.658Z,66.20
2022-10-30T00:14:30.152Z,66.20
2022-10-30T00:19:24.311Z,66.30
2022-10-30T00:21:47.528Z,66.50
2022-10-30T00:26:43.581Z,66.40
2022-10-30T00:29:14.717Z,66.50
2022-10-30T00:31:56.746Z,66.40
2022-10-30T00:34:33.857Z,66.50
2022-10-30T00:36:52.009Z,66.50
2022-10-30T00:39:08.033Z,66.40
2022-10-30T00:41:33.940Z,66.60
2022-10-30T00:43:40.749Z,66.30
2022-10-30T00:45:47.848Z,66.40
2022-10-30T00:47:57.186Z,66.40
2022-10-30T00:50:12.021Z,66.50
2022-10-30T00:52:21.116Z,66.40
2022-10-30T00:57:00.104Z,66.50
2022-10-30T00:59:16.893Z,66.40
2022-10-30T01:01:26.209Z,66.50
2022-10-30T01:03:50.894Z,66.40
2022-10-30T01:07:38.294Z,66.40
2022-10-30T01:10:17.845Z,66.50
2022-10-30T01:18:31.156Z,66.60
2022-10-30T01:21:13.576Z,66.60
2022-10-30T01:24:21.931Z,66.50
2022-10-30T01:27:09.512Z,66.50
2022-10-30T01:29:41.669Z,66.50
2022-10-30T01:33:04.606Z,66.70
2022-10-30T01:35:22.177Z,66.70
2022-10-30T01:37:58.414Z,66.60
2022-10-30T01:43:31.163Z,66.80
2022-10-30T01:46:15.925Z,66.80
2022-10-30T01:54:44.366Z,66.80
2022-10-30T01:57:34.540Z,66.50
2022-10-30T02:00:15.141Z,66.70
2022-10-30T02:06:05.271Z,66.70
2022-10-30T02:20:00.349Z,66.50
2022-10-30T02:22:26.079Z,66.80
2022-10-30T02:24:42.618Z,66.70
2022-10-30T02:29:47.921Z,66.60
2022-10-30T02:32:28.977Z,66.50
2022-10-30T02:52:18.647Z,66.70
2022-10-30T02:54:45.749Z,66.60
2022-10-30T02:57:20.297Z,66.60
2022-10-30T03:05:22.604Z,66.80
2022-10-30T03:07:39.239Z,66.70
2022-10-30T03:10:09.010Z,66.70
2022-10-30T03:15:08.944Z,66.70
2022-10-30T03:17:23.405Z,66.60
2022-10-30T03:20:10.458Z,66.60
2022-10-30T03:22:41.757Z,66.70
2022-10-30T03:28:01.023Z,66.70
2022-10-30T03:30:14.510Z,67.20
2022-10-30T03:32:58.247Z,66.70
2022-10-30T03:35:25.557Z,66.80
2022-10-30T03:37:53.239Z,66.70
2022-10-30T03:45:38.996Z,66.70
2022-10-30T03:48:09.984Z,66.60
2022-10-30T03:50:50.888Z,66.70
2022-10-30T03:53:28.978Z,67.60
2022-10-30T04:03:10.125Z,67.10
2022-10-30T04:05:46.090Z,67.90
2022-10-30T04:15:05.990Z,67.10
2022-10-30T04:17:34.265Z,68.00
2022-10-30T04:19:57.092Z,67.30
2022-10-30T04:22:49.196Z,67.10
2022-10-30T04:25:44.932Z,67.10
2022-10-30T04:31:10.221Z,67.10
2022-10-30T04:40:55.817Z,68.00
2022-10-30T04:43:43.944Z,67.10
2022-10-30T04:46:11.698Z,67.00
2022-10-30T04:54:53.144Z,67.30
2022-10-30T04:57:51.609Z,67.20
2022-10-30T05:07:08.682Z,67.40
2022-10-30T05:10:05.631Z,67.60
2022-10-30T05:13:36.684Z,68.30
2022-10-30T05:16:58.453Z,67.40
2022-10-30T05:19:50.954Z,67.40
2022-10-30T05:22:48.288Z,67.60
2022-10-30T05:29:20.369Z,67.40
2022-10-30T05:34:24.349Z,67.40
2022-10-30T05:37:08.939Z,67.40
2022-10-30T05:39:38.417Z,67.50
2022-10-30T05:45:55.263Z,67.40
2022-10-30T05:48:42.868Z,67.50
2022-10-30T05:51:28.775Z,67.60
2022-10-30T05:54:03.992Z,67.50
2022-10-30T05:56:45.728Z,67.60
2022-10-30T05:59:19.452Z,67.50
2022-10-30T06:02:11.299Z,67.50
2022-10-30T06:07:44.210Z,67.70
2022-10-30T06:09:59.909Z,67.60
2022-10-30T06:12:48.763Z,67.50
2022-10-30T06:18:52.092Z,67.50
2022-10-30T06:22:34.093Z,67.70
2022-10-30T06:28:40.599Z,67.70
2022-10-30T06:33:40.445Z,67.60
2022-10-30T06:44:58.239Z,67.70
2022-10-30T06:47:10.261Z,67.70
2022-10-30T06:49:56.767Z,67.70
2022-10-30T06:55:20.267Z,67.90
2022-10-30T06:58:10.001Z,67.70
2022-10-30T07:03:38.680Z,67.80
2022-10-30T07:05:45.030Z,67.90
2022-10-30T07:08:06.804Z,67.90
2022-10-30T07:12:56.432Z,68.00
2022-10-30T07:15:39.897Z,68.00
2022-10-30T07:18:15.607Z,68.00
2022-10-30T07:23:37.191Z,68.40
2022-10-30T07:26:08.195Z,68.40
2022-10-30T07:28:36.747Z,68.30
2022-10-30T07:31:05.671Z,68.50
2022-10-30T07:33:53.151Z,68.60
2022-10-30T07:36:17.844Z,68.50
2022-10-30T07:38:55.512Z,68.50
2022-10-30T07:41:16.275Z,68.50
2022-10-30T07:43:53.572Z,68.40
2022-10-30T07:46:27.352Z,68.40
2022-10-30T07:48:52.398Z,68.50
2022-10-30T07:51:38.687Z,68.50
2022-10-30T07:53:55.893Z,68.50
2022-10-30T07:56:10.380Z,68.60
2022-10-30T07:58:28.069Z,68.60
2022-10-30T08:01:00.281Z,68.70
2022-10-30T08:03:28.219Z,68.60
2022-10-30T08:05:52.050Z,68.60
2022-10-30T08:08:09.764Z,68.60
2022-10-30T08:10:42.183Z,68.60
2022-10-30T08:13:18.576Z,68.60
2022-10-30T08:15:53.046Z,68.60
2022-10-30T08:18:12.357Z,68.60
2022-10-30T08:22:57.326Z,69.60
2022-10-30T08:30:31.073Z,68.80
2022-10-30T08:38:10.386Z,68.80
2022-10-30T08:40:44.045Z,68.80
2022-10-30T08:43:12.430Z,68.80
2022-10-30T08:45:31.209Z,68.90
2022-10-30T08:48:08.727Z,68.80
2022-10-30T08:50:26.783Z,68.80
2022-10-30T08:58:50.361Z,69.00
2022-10-30T09:01:08.101Z,69.10
2022-10-30T09:03:49.348Z,69.10
2022-10-30T09:06:22.741Z,69.80
2022-10-30T09:08:48.097Z,68.80
2022-10-30T09:11:34.534Z,69.50
2022-10-30T09:13:47.376Z,68.60
2022-10-30T09:15:58.471Z,68.60
2022-10-30T09:18:36.818Z,68.70
2022-10-30T09:20:47.246Z,68.70
2022-10-30T09:23:04.595Z,68.80
2022-10-30T09:25:28.962Z,68.80
2022-10-30T09:28:17.051Z,68.80
2022-10-30T09:31:00.247Z,68.80
2022-10-30T09:33:32.557Z,68.70
2022-10-30T09:39:20.855Z,68.80
2022-10-30T09:41:51.057Z,68.70
2022-10-30T09:47:47.487Z,68.60
2022-10-30T09:50:48.482Z,68.50
2022-10-30T09:56:21.193Z,68.40
2022-10-30T09:58:57.445Z,68.40
2022-10-30T10:01:27.064Z,68.40
2022-10-30T10:06:29.827Z,68.20
2022-10-30T10:09:14.668Z,68.20
2022-10-30T10:12:02.124Z,68.10
2022-10-30T10:14:16.520Z,68.10
2022-10-30T10:16:36.545Z,68.80
2022-10-30T10:18:58.665Z,68.00
2022-10-30T10:23:43.314Z,67.90
2022-10-30T10:25:52.486Z,67.80
2022-10-30T10:28:15.317Z,67.80
2022-10-30T10:30:30.290Z,67.70
2022-10-30T10:32:47.429Z,67.70
2022-10-30T10:35:11.020Z,67.70
2022-10-30T10:37:22.869Z,67.70
2022-10-30T10:39:42.339Z,67.50
2022-10-30T10:42:05.321Z,67.40
2022-10-30T10:44:23.162Z,67.40
2022-10-30T10:46:39.756Z,67.40
2022-10-30T10:49:00.327Z,67.40
2022-10-30T10:51:05.702Z,67.20
2022-10-30T10:53:11.804Z,67.20
2022-10-30T10:55:16.146Z,67.10
2022-10-30T10:57:33.399Z,67.00
2022-10-30T10:59:44.556Z,66.80
2022-10-30T11:01:51.066Z,66.90
2022-10-30T11:04:13.623Z,66.50
2022-10-30T11:06:30.307Z,66.50
2022-10-30T11:08:33.188Z,66.60
2022-10-30T11:10:34.987Z,66.50
2022-10-30T11:12:37.480Z,66.60
2022-10-30T11:14:40.722Z,66.40
2022-10-30T11:17:01.755Z,66.40
2022-10-30T11:19:04.994Z,66.10
2022-10-30T11:21:16.549Z,66.30
2022-10-30T11:23:33.616Z,66.00
2022-10-30T11:25:40.229Z,66.00
2022-10-30T11:27:42.057Z,66.00
2022-10-30T11:30:03.050Z,65.80
2022-10-30T11:32:05.371Z,65.70
2022-10-30T11:34:14.588Z,65.70
2022-10-30T11:36:17.516Z,65.40
2022-10-30T11:38:20.077Z,65.30
2022-10-30T11:40:23.055Z,65.20
2022-10-30T11:42:24.844Z,64.80
2022-10-30T11:44:35.212Z,64.70
2022-10-30T11:46:37.159Z,64.70
2022-10-30T11:48:43.113Z,64.80
2022-10-30T11:50:47.370Z,64.50
2022-10-30T11:52:52.898Z,64.40
2022-10-30T11:54:54.551Z,64.20
2022-10-30T11:56:56.460Z,64.10
2022-10-30T11:58:59.946Z,63.80
2022-10-30T12:01:06.525Z,63.90
2022-10-30T12:03:26.436Z,63.90
2022-10-30T12:05:37.133Z,63.80
2022-10-30T12:07:38.804Z,63.80
2022-10-30T12:09:44.661Z,63.90
2022-10-30T12:11:46.692Z,63.80
2022-10-30T12:13:48.479Z,63.70
2022-10-30T12:15:51.432Z,63.70
2022-10-30T12:18:03.198Z,63.80
2022-10-30T12:20:05.272Z,63.70
2022-10-30T12:22:09.794Z,63.50
2022-10-30T12:24:17.048Z,63.60
2022-10-30T12:26:18.746Z,63.50
2022-10-30T12:28:25.920Z,63.40
2022-10-30T12:30:28.807Z,63.30
2022-10-30T12:32:39.691Z,63.30
2022-10-30T12:34:53.061Z,63.20
2022-10-30T12:37:07.884Z,63.40
2022-10-30T12:39:12.600Z,63.20
2022-10-30T12:41:20.020Z,62.80
2022-10-30T12:43:26.437Z,62.90
2022-10-30T12:45:31.413Z,62.80
2022-10-30T12:47:36.042Z,62.60
2022-10-30T12:49:42.119Z,62.60
2022-10-30T12:51:43.840Z,62.60
2022-10-30T12:53:50.291Z,62.50
2022-10-30T12:55:55.451Z,62.60
2022-10-30T12:58:02.971Z,62.20
2022-10-30T13:00:11.163Z,62.30
2022-10-30T13:02:16.071Z,62.00
2022-10-30T13:04:19.841Z,62.00
2022-10-30T13:06:29.057Z,62.00
2022-10-30T13:08:32.840Z,61.80
2022-10-30T13:10:40.087Z,61.50
2022-10-30T13:12:43.990Z,61.60
2022-10-30T13:14:49.424Z,61.10
2022-10-30T13:16:52.132Z,60.90
2022-10-30T13:18:55.956Z,60.90
2022-10-30T13:21:00.275Z,60.90
2022-10-30T13:23:23.816Z,60.80
2022-10-30T13:25:40.272Z,60.50
2022-10-30T13:27:42.062Z,60.80
2022-10-30T13:29:56.438Z,60.60
2022-10-30T13:31:58.257Z,60.40
2022-10-30T13:34:02.791Z,60.40
2022-10-30T13:36:04.570Z,60.20
2022-10-30T13:38:06.244Z,60.30
2022-10-30T13:40:16.584Z,60.50
2022-10-30T13:42:23.175Z,60.30
2022-10-30T13:44:39.820Z,60.90
2022-10-30T13:46:53.358Z,60.10
2022-10-30T13:49:07.116Z,60.00
2022-10-30T13:51:27.367Z,59.80
2022-10-30T13:53:30.480Z,59.90
2022-10-30T13:55:34.340Z,59.90
2022-10-30T13:57:51.317Z,59.80
2022-10-30T13:59:55.831Z,59.80
2022-10-30T14:02:09.841Z,60.60
2022-10-30T14:04:21.235Z,59.70
2022-10-30T14:06:29.997Z,59.70
2022-10-30T14:08:35.543Z,59.80
2022-10-30T14:10:45.722Z,60.00
2022-10-30T14:13:07.399Z,60.10
2022-10-30T14:15:18.774Z,60.10
2022-10-30T14:17:20.488Z,60.10
2022-10-30T14:19:22.229Z,60.10
2022-10-30T14:21:42.478Z,60.10
2022-10-30T14:23:44.237Z,60.40
2022-10-30T14:26:04.259Z,60.40
2022-10-30T14:28:06.240Z,60.20
2022-10-30T14:30:18.243Z,60.40
2022-10-30T14:32:21.674Z,60.40
2022-10-30T14:34:42.529Z,60.30
2022-10-30T14:36:44.353Z,60.30
2022-10-30T14:38:58.802Z,60.30
2022-10-30T14:41:07.156Z,60.30
2022-10-30T14:43:20.294Z,60.10
2022-10-30T14:45:27.755Z,60.20
2022-10-30T14:47:34.440Z,60.10
2022-10-30T14:49:45.377Z,60.00
2022-10-30T14:51:53.991Z,59.90
2022-10-30T14:54:07.621Z,59.80
2022-10-30T14:56:18.406Z,59.70
2022-10-30T14:58:27.497Z,59.50
2022-10-30T15:00:37.452Z,59.50
2022-10-30T15:02:48.143Z,59.50
2022-10-30T15:05:21.067Z,59.60
2022-10-30T15:07:41.123Z,59.70
2022-10-30T15:09:57.351Z,59.60
2022-10-30T15:11:59.399Z,59.60
2022-10-30T15:14:04.880Z,59.50
2022-10-30T15:16:07.693Z,59.50
2022-10-30T15:18:11.181Z,59.50
2022-10-30T15:20:21.259Z,59.60
2022-10-30T15:22:23.581Z,59.80
2022-10-30T15:24:31.959Z,59.80
2022-10-30T15:26:35.800Z,60.50
2022-10-30T15:28:38.511Z,59.80
2022-10-30T15:30:57.528Z,59.80
2022-10-30T15:32:59.465Z,59.80
2022-10-30T15:35:05.874Z,59.80
2022-10-30T15:37:11.485Z,59.90
2022-10-30T15:39:14.777Z,60.00
2022-10-30T15:41:16.544Z,60.00
2022-10-30T15:43:19.266Z,60.10
2022-10-30T15:45:25.618Z,60.40
2022-10-30T15:47:28.769Z,60.40
2022-10-30T15:49:34.351Z,60.40
2022-10-30T15:51:36.112Z,60.40
2022-10-30T15:53:40.165Z,60.40
2022-10-30T15:55:42.585Z,60.40
2022-10-30T15:58:06.893Z,60.50
2022-10-30T16:00:19.122Z,60.70
2022-10-30T16:02:22.308Z,60.70
2022-10-30T16:04:25.912Z,60.80
2022-10-30T16:06:29.172Z,60.80
2022-10-30T16:08:30.844Z,60.80
2022-10-30T16:10:35.806Z,60.80
2022-10-30T16:12:37.556Z,60.80
2022-10-30T16:14:39.395Z,60.70
2022-10-30T16:16:43.037Z,60.70
2022-10-30T16:18:44.805Z,60.50
2022-10-30T16:20:57.416Z,60.50
2022-10-30T16:23:00.101Z,60.50
2022-10-30T16:25:02.479Z,60.50
2022-10-30T16:27:14.176Z,60.40
2022-10-30T16:29:21.243Z,60.50
2022-10-30T16:31:24.778Z,60.40
2022-10-30T16:33:27.456Z,60.40
2022-10-30T16:35:29.369Z,60.50
2022-10-30T16:37:35.796Z,60.20
2022-10-30T16:39:37.720Z,60.00
2022-10-30T16:41:39.524Z,59.90
2022-10-30T16:43:44.631Z,59.90
2022-10-30T16:45:48.118Z,60.20
2022-10-30T16:50:38.451Z,60.20
2022-10-30T16:52:49.761Z,60.20
2022-10-30T16:55:27.055Z,60.50
2022-10-30T17:00:25.928Z,60.10
2022-10-30T17:02:34.341Z,60.20
2022-10-30T17:04:39.685Z,60.00
2022-10-30T17:06:56.748Z,60.20
2022-10-30T17:09:40.033Z,59.80
2022-10-30T17:12:20.236Z,60.10
2022-10-30T17:15:18.171Z,60.00
2022-10-30T17:17:35.976Z,60.10
2022-10-30T17:20:03.812Z,59.90
2022-10-30T17:22:47.126Z,60.10
2022-10-30T17:25:18.422Z,60.00
2022-10-30T17:28:25.074Z,60.10
2022-10-30T17:30:54.154Z,60.00
2022-10-30T17:33:03.035Z,59.80
2022-10-30T17:38:31.757Z,60.00
2022-10-30T17:41:21.733Z,60.20
2022-10-30T17:44:08.936Z,59.80
2022-10-30T17:46:30.308Z,59.80
2022-10-30T17:49:25.219Z,60.10
2022-10-30T17:51:55.164Z,60.20
2022-10-30T17:54:20.838Z,60.00
2022-10-30T18:00:02.212Z,60.40
2022-10-30T18:02:14.398Z,60.50
2022-10-30T18:04:20.891Z,60.60
2022-10-30T18:06:25.039Z,60.70
2022-10-30T18:08:27.108Z,60.80
2022-10-30T18:10:29.506Z,60.80
2022-10-30T18:12:31.337Z,60.90
2022-10-30T18:14:33.322Z,60.70
2022-10-30T18:16:35.145Z,60.50
2022-10-30T18:19:04.600Z,60.60
2022-10-30T18:21:19.371Z,60.60
2022-10-30T18:23:51.399Z,60.90
2022-10-30T18:26:05.322Z,61.00
2022-10-30T18:28:19.384Z,61.10
2022-10-30T18:30:28.086Z,61.10
2022-10-30T18:35:01.691Z,61.10
2022-10-30T18:37:10.331Z,61.00
2022-10-30T18:39:13.061Z,61.00
2022-10-30T18:41:24.732Z,61.10
2022-10-30T18:43:26.648Z,61.20
2022-10-30T18:45:35.537Z,61.20
2022-10-30T18:47:40.786Z,61.10
2022-10-30T18:49:43.353Z,61.00
2022-10-30T18:51:45.328Z,61.20
2022-10-30T18:56:10.689Z,61.30
2022-10-30T18:58:12.688Z,61.10
2022-10-30T19:00:15.566Z,61.20
2022-10-30T19:04:41.956Z,61.40
2022-10-30T19:06:50.654Z,61.10
2022-10-30T19:08:54.822Z,61.20
2022-10-30T19:13:49.844Z,61.40
2022-10-30T19:27:49.375Z,62.30
2022-10-30T19:32:57.125Z,61.40
2022-10-30T19:35:18.554Z,61.50
2022-10-30T19:37:31.271Z,61.50
2022-10-30T19:39:48.517Z,61.50
2022-10-30T19:42:07.373Z,61.60
2022-10-30T19:46:57.227Z,61.60
2022-10-30T19:49:34.357Z,61.50
2022-10-30T19:51:46.081Z,61.60
2022-10-30T20:04:51.219Z,61.60
2022-10-30T20:07:07.584Z,61.60
2022-10-30T20:09:15.517Z,61.60
2022-10-30T20:11:23.616Z,61.70
2022-10-30T20:16:08.262Z,61.60
2022-10-30T20:21:08.065Z,61.80
2022-10-30T20:23:40.689Z,61.90
2022-10-30T20:26:08.727Z,61.90
2022-10-30T20:31:07.972Z,62.20
2022-10-30T20:33:33.174Z,62.10
2022-10-30T20:36:05.010Z,62.30
2022-10-30T20:40:56.701Z,62.40
2022-10-30T20:43:42.523Z,62.50
2022-10-30T20:46:34.306Z,62.50
2022-10-30T20:48:37.290Z,62.40
2022-10-30T20:50:46.409Z,62.80
2022-10-30T20:56:35.828Z,62.50
2022-10-30T20:59:36.179Z,62.50
2022-10-30T21:08:12.838Z,62.60
2022-10-30T21:19:35.230Z,63.20
2022-10-30T21:31:18.913Z,63.40
2022-10-30T21:34:08.478Z,63.50
2022-10-30T21:49:50.537Z,63.50
2022-10-30T22:17:20.019Z,64.00
2022-10-30T22:41:53.420Z,63.80
2022-10-30T22:44:23.046Z,63.80
2022-10-30T22:47:13.452Z,63.80
2022-10-30T22:49:38.153Z,63.80
2022-10-30T22:52:26.904Z,63.50
2022-10-30T22:55:25.733Z,63.70
2022-10-30T22:58:41.084Z,63.70
2022-10-30T23:01:51.798Z,63.90
2022-10-30T23:04:34.831Z,63.80
2022-10-30T23:07:22.216Z,63.80
2022-10-30T23:09:39.312Z,64.00
2022-10-30T23:14:47.375Z,64.00
2022-10-30T23:29:54.417Z,64.20
2022-10-30T23:32:43.867Z,64.40
2022-10-30T23:46:56.816Z,64.30
2022-10-30T23:49:18.317Z,64.70
2022-10-30T23:52:14.638Z,64.50
2022-10-30T23:54:55.119Z,64.50
2022-10-30T23:57:35.087Z,64.40
